This is the latest recevied weather packets stored in our database for station/object SV2BBO-14. If no packets are shown the sender has not sent any weather packets the latest 10 day(s).
| Time | Temp. | Humidity | Pressure | Rain* | Wind** | Luminosity | Snow |
|---|---|---|---|---|---|---|---|
| 1777223973 | 18.89° C | 66% | 1013.7 hPa | - | - | - | - |
| 1777223072 | 19.44° C | 61% | 1013.5 hPa | - | - | - | - |
| 1777222171 | 19.44° C | 61% | 1013.4 hPa | - | - | - | - |
| 1777221271 | 20° C | 61% | 1013.5 hPa | - | - | - | - |
| 1777220370 | 20.56° C | 62% | 1013.4 hPa | - | - | - | - |
| 1777219469 | 21.11° C | 63% | 1013.4 hPa | - | - | - | - |
| 1777218569 | 21.67° C | 64% | 1013.3 hPa | - | - | - | - |
| 1777217668 | 21.67° C | 65% | 1013.5 hPa | - | - | - | - |
| 1777216767 | 21.67° C | 62% | 1013.5 hPa | - | - | - | - |
| 1777215866 | 23.33° C | 43% | 1013.4 hPa | - | - | - | - |
| 1777214965 | 23.89° C | 42% | 1013.3 hPa | - | - | - | - |
| 1777214064 | 25° C | 43% | 1013.2 hPa | - | - | - | - |
| 1777213182 | 23.89° C | 40% | 1013.2 hPa | - | - | - | - |
| 1777212283 | 24.44° C | 39% | 1013.2 hPa | - | - | - | - |
| 1777211381 | 24.44° C | 39% | 1013.2 hPa | - | - | - | - |
| 1777210480 | 24.44° C | 39% | 1013.4 hPa | - | - | - | - |
| 1777209579 | 24.44° C | 41% | 1013.6 hPa | - | - | - | - |
| 1777208678 | 24.44° C | 42% | 1013.7 hPa | - | - | - | - |
| 1777207778 | 24.44° C | 41% | 1013.8 hPa | - | - | - | - |
| 1777206877 | 24.44° C | 37% | 1013.8 hPa | - | - | - | - |
| 1777205976 | 24.44° C | 41% | 1014 hPa | - | - | - | - |
| 1777205075 | 23.33° C | 44% | 1014.1 hPa | - | - | - | - |
| 1777204175 | 22.22° C | 48% | 1014.3 hPa | - | - | - | - |
| 1777203274 | 22.22° C | 48% | 1014.5 hPa | - | - | - | - |
| 1777202373 | 21.11° C | 52% | 1014.6 hPa | - | - | - | - |
* Rain since midnight (hover to see other rain measurements)
** Current wind speed in m/s (hover to see current wind gust speed)